KJTC

Springerville Municipal Airport

Springerville, Arizona, USA

KJTC 110855Z AUTO 17005KT 10SM CLR M06/M20 A3049 RMK AO2

Observed Flight Rules
Dec-11 @ 08:55 UTC (18 minutes ago) Visual Flight Rules
Wind Visibility Clouds
170° at 5 knots 10 miles
  • Clear skies
Temperatures Readings
Current -6°C / 21°F
Dewpoint -20°C / -4°F
Humidity 32%
Altimeter 30.49" Hg
Pressure 1033 hPa
Elevation 2150
Observed Flight Rules
Dec-11 @ 08:55 UTC
(18 minutes ago)
VFR
Wind Visibility
170° at 5 knots 10 miles
Clouds
  • Clear skies
Temperature Dewpoint
-6°C / 21°F -20°C / -4°F
Humidity Altimeter Pressure
32% 30.49" Hg 1033 hPa